createdAt,value
2023-04-04T00:01:09.528Z,98402.00
2023-04-04T00:03:37.807Z,98411.00
2023-04-04T00:06:06.246Z,98402.00
2023-04-04T00:08:34.510Z,98405.00
2023-04-04T00:11:06.293Z,98394.00
2023-04-04T00:13:34.806Z,98383.00
2023-04-04T00:16:03.140Z,98396.00
2023-04-04T00:18:31.325Z,98387.00
2023-04-04T00:20:59.625Z,98381.00
2023-04-04T00:23:27.826Z,98380.00
2023-04-04T00:25:56.713Z,98390.00
2023-04-04T00:28:26.430Z,98388.00
2023-04-04T00:30:55.562Z,98387.00
2023-04-04T00:33:24.270Z,98389.00
2023-04-04T00:35:53.010Z,98383.00
2023-04-04T00:38:21.223Z,98398.00
2023-04-04T00:40:51.964Z,98386.00
2023-04-04T00:43:20.558Z,98381.00
2023-04-04T00:45:52.852Z,98384.00
2023-04-04T00:48:24.287Z,98362.00
2023-04-04T00:50:52.614Z,98367.00
2023-04-04T00:53:20.756Z,98346.00
2023-04-04T00:55:49.001Z,98355.00
2023-04-04T00:58:17.308Z,98355.00
2023-04-04T01:00:46.057Z,98360.00
2023-04-04T01:03:15.653Z,98352.00
2023-04-04T01:05:44.322Z,98365.00
2023-04-04T01:08:12.922Z,98356.00
2023-04-04T01:10:42.707Z,98366.00
2023-04-04T01:13:12.009Z,98362.00
2023-04-04T01:15:41.568Z,98359.00
2023-04-04T01:18:14.021Z,98351.00
2023-04-04T01:20:53.687Z,98352.00
2023-04-04T01:23:29.639Z,98356.00
2023-04-04T01:26:05.528Z,98341.00
2023-04-04T01:28:35.356Z,98350.00
2023-04-04T01:31:11.231Z,98356.00
2023-04-04T01:33:50.384Z,98349.00
2023-04-04T01:36:27.030Z,98333.00
2023-04-04T01:39:02.664Z,98342.00
2023-04-04T01:41:36.060Z,98343.00
2023-04-04T01:44:05.463Z,98338.00
2023-04-04T01:46:34.021Z,98341.00
2023-04-04T01:49:02.207Z,98338.00
2023-04-04T01:51:35.331Z,98342.00
2023-04-04T01:54:03.678Z,98340.00
2023-04-04T01:56:33.860Z,98338.00
2023-04-04T01:59:02.159Z,98329.00
2023-04-04T02:01:30.824Z,98320.00
2023-04-04T02:03:59.151Z,98331.00
2023-04-04T02:06:27.634Z,98322.00
2023-04-04T02:08:56.231Z,98325.00
2023-04-04T02:11:25.853Z,98326.00
2023-04-04T02:13:55.433Z,98324.00
2023-04-04T02:16:24.225Z,98326.00
2023-04-04T02:18:52.961Z,98324.00
2023-04-04T02:21:21.157Z,98332.00
2023-04-04T02:23:49.452Z,98318.00
2023-04-04T02:26:17.598Z,98331.00
2023-04-04T02:28:45.812Z,98327.00
2023-04-04T02:31:15.730Z,98319.00
2023-04-04T02:33:43.925Z,98318.00
2023-04-04T02:36:12.938Z,98321.00
2023-04-04T02:38:41.979Z,98315.00
2023-04-04T02:41:10.607Z,98309.00
2023-04-04T02:43:38.924Z,98326.00
2023-04-04T02:46:20.455Z,98326.00
2023-04-04T02:48:53.805Z,98318.00
2023-04-04T02:51:22.490Z,98327.00
2023-04-04T02:53:50.767Z,98322.00
2023-04-04T02:56:24.515Z,98317.00
2023-04-04T02:58:52.827Z,98315.00
2023-04-04T03:01:21.095Z,98314.00
2023-04-04T03:03:49.429Z,98317.00
2023-04-04T03:06:19.108Z,98310.00
2023-04-04T03:08:49.894Z,98314.00
2023-04-04T03:11:21.459Z,98320.00
2023-04-04T03:13:51.680Z,98311.00
2023-04-04T03:16:23.437Z,98317.00
2023-04-04T03:18:53.432Z,98310.00
2023-04-04T03:21:24.429Z,98293.00
2023-04-04T03:23:52.974Z,98307.00
2023-04-04T03:26:21.130Z,98303.00
2023-04-04T03:28:49.302Z,98311.00
2023-04-04T03:31:19.112Z,98310.00
2023-04-04T03:33:47.541Z,98305.00
2023-04-04T03:36:16.695Z,98303.00
2023-04-04T03:38:49.380Z,98295.00
2023-04-04T03:41:17.589Z,98305.00
2023-04-04T03:43:46.056Z,98301.00
2023-04-04T03:46:14.230Z,98299.00
2023-04-04T03:48:42.836Z,98307.00
2023-04-04T03:51:12.544Z,98307.00
2023-04-04T03:53:41.035Z,98310.00
2023-04-04T03:56:11.473Z,98320.00
2023-04-04T03:58:40.515Z,98306.00
2023-04-04T04:01:09.708Z,98308.00
2023-04-04T04:03:38.036Z,98296.00
2023-04-04T04:06:06.835Z,98314.00
2023-04-04T04:08:35.094Z,98302.00
2023-04-04T04:11:08.053Z,98303.00
2023-04-04T04:13:38.736Z,98299.00
2023-04-04T04:16:08.135Z,98299.00
2023-04-04T04:18:37.939Z,98298.00
2023-04-04T04:21:11.191Z,98296.00
2023-04-04T04:23:43.437Z,98308.00
2023-04-04T04:26:11.737Z,98306.00
2023-04-04T04:28:41.337Z,98302.00
2023-04-04T04:31:14.854Z,98302.00
2023-04-04T04:33:47.196Z,98317.00
2023-04-04T04:36:15.655Z,98288.00
2023-04-04T04:38:56.435Z,98296.00
2023-04-04T04:41:29.215Z,98309.00
2023-04-04T04:43:58.845Z,98306.00
2023-04-04T04:46:28.797Z,98296.00
2023-04-04T04:48:57.497Z,98303.00
2023-04-04T04:51:30.280Z,98307.00
2023-04-04T04:54:00.052Z,98295.00
2023-04-04T04:56:29.560Z,98295.00
2023-04-04T04:59:08.995Z,98299.00
2023-04-04T05:01:39.129Z,98315.00
2023-04-04T05:04:07.458Z,98295.00
2023-04-04T05:06:43.324Z,98312.00
2023-04-04T05:09:13.504Z,98316.00
2023-04-04T05:11:42.564Z,98310.00
2023-04-04T05:14:15.980Z,98308.00
2023-04-04T05:16:53.108Z,98308.00
2023-04-04T05:19:22.867Z,98315.00
2023-04-04T05:21:55.192Z,98307.00
2023-04-04T05:24:49.591Z,98313.00
2023-04-04T05:27:22.091Z,98306.00
2023-04-04T05:29:57.678Z,98312.00
2023-04-04T05:32:28.083Z,98326.00
2023-04-04T05:35:07.098Z,98314.00
2023-04-04T05:37:41.063Z,98302.00
2023-04-04T05:40:13.721Z,98297.00
2023-04-04T05:42:43.917Z,98296.00
2023-04-04T05:45:14.884Z,98303.00
2023-04-04T05:47:45.600Z,98306.00
2023-04-04T05:50:16.075Z,98310.00
2023-04-04T05:52:44.855Z,98307.00
2023-04-04T05:55:16.824Z,98317.00
2023-04-04T05:57:49.862Z,98310.00
2023-04-04T06:00:24.862Z,98309.00
2023-04-04T06:03:03.784Z,98308.00
2023-04-04T06:05:32.558Z,98313.00
2023-04-04T06:08:00.916Z,98316.00
2023-04-04T06:10:29.137Z,98311.00
2023-04-04T06:12:58.034Z,98316.00
2023-04-04T06:15:27.630Z,98310.00
2023-04-04T06:17:55.978Z,98315.00
2023-04-04T06:20:24.643Z,98314.00
2023-04-04T06:22:54.446Z,98309.00
2023-04-04T06:25:23.098Z,98304.00
2023-04-04T06:27:52.292Z,98313.00
2023-04-04T06:30:20.790Z,98320.00
2023-04-04T06:32:54.654Z,98311.00
2023-04-04T06:35:26.819Z,98321.00
2023-04-04T06:38:04.089Z,98319.00
2023-04-04T06:40:33.173Z,98325.00
2023-04-04T06:43:01.842Z,98319.00
2023-04-04T06:45:36.090Z,98314.00
2023-04-04T06:48:05.799Z,98310.00
2023-04-04T06:50:35.097Z,98317.00
2023-04-04T06:53:06.595Z,98325.00
2023-04-04T06:55:35.124Z,98324.00
2023-04-04T06:58:03.370Z,98316.00
2023-04-04T07:00:31.569Z,98320.00
2023-04-04T07:03:00.461Z,98330.00
2023-04-04T07:05:30.131Z,98316.00
2023-04-04T07:07:58.296Z,98329.00
2023-04-04T07:10:27.116Z,98322.00
2023-04-04T07:12:55.405Z,98322.00
2023-04-04T07:15:23.678Z,98321.00
2023-04-04T07:17:52.125Z,98317.00
2023-04-04T07:20:20.555Z,98313.00
2023-04-04T07:22:50.868Z,98322.00
2023-04-04T07:25:19.201Z,98315.00
2023-04-04T07:27:47.715Z,98324.00
2023-04-04T07:30:16.893Z,98322.00
2023-04-04T07:32:45.270Z,98323.00
2023-04-04T07:35:13.792Z,98328.00
2023-04-04T07:37:42.109Z,98331.00
2023-04-04T07:40:13.044Z,98320.00
2023-04-04T07:42:46.097Z,98340.00
2023-04-04T07:45:15.087Z,98335.00
2023-04-04T07:47:46.077Z,98338.00
2023-04-04T07:50:15.113Z,98335.00
2023-04-04T07:52:43.549Z,98337.00
2023-04-04T07:55:14.480Z,98335.00
2023-04-04T07:57:44.794Z,98340.00
2023-04-04T08:00:14.515Z,98335.00
2023-04-04T08:02:46.341Z,98331.00
2023-04-04T08:05:14.662Z,98329.00
2023-04-04T08:07:42.983Z,98331.00
2023-04-04T08:10:12.812Z,98343.00
2023-04-04T08:12:41.502Z,98339.00
2023-04-04T08:15:11.448Z,98341.00
2023-04-04T08:17:39.896Z,98341.00
2023-04-04T08:20:09.555Z,98335.00
2023-04-04T08:22:37.774Z,98325.00
2023-04-04T08:25:06.881Z,98333.00
2023-04-04T08:27:36.589Z,98335.00
2023-04-04T08:30:06.964Z,98335.00
2023-04-04T08:32:35.196Z,98335.00
2023-04-04T08:35:03.477Z,98333.00
2023-04-04T08:37:32.187Z,98326.00
2023-04-04T08:40:00.489Z,98327.00
2023-04-04T08:42:33.434Z,98329.00
2023-04-04T08:45:05.500Z,98328.00
2023-04-04T08:47:36.770Z,98325.00
2023-04-04T08:50:07.766Z,98328.00
2023-04-04T08:52:36.826Z,98318.00
2023-04-04T08:55:08.087Z,98324.00
2023-04-04T08:57:37.877Z,98328.00
2023-04-04T09:00:10.023Z,98327.00
2023-04-04T09:02:47.600Z,98318.00
2023-04-04T09:05:16.765Z,98327.00
2023-04-04T09:07:45.550Z,98323.00
2023-04-04T09:10:13.870Z,98314.00
2023-04-04T09:12:47.429Z,98329.00
2023-04-04T09:15:17.339Z,98317.00
2023-04-04T09:17:45.750Z,98317.00
2023-04-04T09:20:41.826Z,98330.00
2023-04-04T09:23:13.070Z,98320.00
2023-04-04T09:26:02.370Z,98331.00
2023-04-04T09:28:32.987Z,98324.00
2023-04-04T09:31:06.041Z,98335.00
2023-04-04T09:33:35.834Z,98321.00
2023-04-04T09:36:10.206Z,98322.00
2023-04-04T09:38:43.090Z,98334.00
2023-04-04T09:41:14.814Z,98341.00
2023-04-04T09:43:46.571Z,98336.00
2023-04-04T09:46:20.550Z,98343.00
2023-04-04T09:48:51.760Z,98325.00
2023-04-04T09:51:20.153Z,98339.00
2023-04-04T09:53:49.972Z,98325.00
2023-04-04T09:56:18.627Z,98312.00
2023-04-04T09:59:02.301Z,98313.00
2023-04-04T10:01:34.864Z,98322.00
2023-04-04T10:04:06.170Z,98311.00
2023-04-04T10:06:37.693Z,98315.00
2023-04-04T10:09:09.001Z,98304.00
2023-04-04T10:11:38.643Z,98321.00
2023-04-04T10:14:07.021Z,98313.00
2023-04-04T10:16:37.998Z,98301.00
2023-04-04T10:19:08.672Z,98314.00
2023-04-04T10:21:37.651Z,98319.00
2023-04-04T10:24:10.020Z,98316.00
2023-04-04T10:26:38.594Z,98312.00
2023-04-04T10:29:06.894Z,98320.00
2023-04-04T10:31:44.767Z,98294.00
2023-04-04T10:34:22.981Z,98302.00
2023-04-04T10:36:54.918Z,98304.00
2023-04-04T10:39:27.493Z,98302.00
2023-04-04T10:41:58.630Z,98306.00
2023-04-04T10:44:34.145Z,98304.00
2023-04-04T10:47:16.146Z,98301.00
2023-04-04T10:49:46.262Z,98300.00
2023-04-04T10:52:17.178Z,98293.00
2023-04-04T10:54:46.725Z,98286.00
2023-04-04T10:57:16.128Z,98289.00
2023-04-04T11:00:02.680Z,98298.00
2023-04-04T11:02:55.602Z,98291.00
2023-04-04T11:05:26.631Z,98305.00
2023-04-04T11:08:07.606Z,98287.00
2023-04-04T11:10:38.882Z,98295.00
2023-04-04T11:13:14.395Z,98290.00
2023-04-04T11:15:57.732Z,98272.00
2023-04-04T11:18:49.012Z,98271.00
2023-04-04T11:21:19.892Z,98269.00
2023-04-04T11:24:18.350Z,98268.00
2023-04-04T11:26:47.204Z,98262.00
2023-04-04T11:29:43.006Z,98264.00
2023-04-04T11:32:34.351Z,98268.00
2023-04-04T11:35:07.023Z,98282.00
2023-04-04T11:37:45.164Z,98270.00
2023-04-04T11:40:15.306Z,98271.00
2023-04-04T11:42:43.925Z,98273.00
2023-04-04T11:45:20.783Z,98265.00
2023-04-04T11:47:51.367Z,98258.00
2023-04-04T11:50:22.144Z,98264.00
2023-04-04T11:52:53.888Z,98254.00
2023-04-04T11:55:22.834Z,98252.00
2023-04-04T11:57:51.402Z,98251.00
2023-04-04T12:00:31.328Z,98246.00
2023-04-04T12:03:00.132Z,98250.00
2023-04-04T12:05:31.482Z,98245.00
2023-04-04T12:08:01.857Z,98242.00
2023-04-04T12:10:33.361Z,98259.00
2023-04-04T12:13:02.701Z,98248.00
2023-04-04T12:15:33.362Z,98251.00
2023-04-04T12:18:01.550Z,98243.00
2023-04-04T12:20:32.253Z,98242.00
2023-04-04T12:23:00.425Z,98240.00
2023-04-04T12:25:33.801Z,98238.00
2023-04-04T12:28:06.693Z,98239.00
2023-04-04T12:30:35.301Z,98241.00
2023-04-04T12:33:04.048Z,98247.00
2023-04-04T12:35:34.444Z,98232.00
2023-04-04T12:38:07.300Z,98241.00
2023-04-04T12:40:38.147Z,98233.00
2023-04-04T12:43:09.145Z,98251.00
2023-04-04T12:45:43.568Z,98226.00
2023-04-04T12:48:14.936Z,98234.00
2023-04-04T12:50:56.711Z,98230.00
2023-04-04T12:53:29.527Z,98217.00
2023-04-04T12:56:04.502Z,98222.00
2023-04-04T12:58:35.875Z,98229.00
2023-04-04T13:01:07.026Z,98220.00
2023-04-04T13:03:35.834Z,98222.00
2023-04-04T13:06:13.752Z,98227.00
2023-04-04T13:08:51.819Z,98225.00
2023-04-04T13:11:20.729Z,98209.00
2023-04-04T13:13:49.608Z,98210.00
2023-04-04T13:16:33.331Z,98203.00
2023-04-04T13:19:02.322Z,98207.00
2023-04-04T13:21:32.519Z,98197.00
2023-04-04T13:24:03.352Z,98199.00
2023-04-04T13:26:31.610Z,98201.00
2023-04-04T13:28:59.855Z,98209.00
2023-04-04T13:31:28.136Z,98210.00
2023-04-04T13:33:56.314Z,98215.00
2023-04-04T13:36:24.545Z,98208.00
2023-04-04T13:38:54.026Z,98199.00
2023-04-04T13:41:22.309Z,98191.00
2023-04-04T13:43:50.616Z,98198.00
2023-04-04T13:46:18.877Z,98185.00
2023-04-04T13:48:47.087Z,98186.00
2023-04-04T13:51:15.417Z,98188.00
2023-04-04T13:53:45.035Z,98187.00
2023-04-04T13:56:18.140Z,98185.00
2023-04-04T13:58:47.121Z,98183.00
2023-04-04T14:01:15.500Z,98188.00
2023-04-04T14:03:43.919Z,98189.00
2023-04-04T14:06:12.403Z,98184.00
2023-04-04T14:08:40.833Z,98184.00
2023-04-04T14:11:09.170Z,98186.00
2023-04-04T14:13:38.676Z,98175.00
2023-04-04T14:16:09.112Z,98181.00
2023-04-04T14:18:37.348Z,98196.00
2023-04-04T14:21:07.192Z,98186.00
2023-04-04T14:23:35.665Z,98182.00
2023-04-04T14:26:04.213Z,98180.00
2023-04-04T14:28:34.793Z,98180.00
2023-04-04T14:31:05.906Z,98181.00
2023-04-04T14:33:34.210Z,98168.00
2023-04-04T14:36:02.545Z,98168.00
2023-04-04T14:38:31.724Z,98176.00
2023-04-04T14:41:01.805Z,98172.00
2023-04-04T14:43:29.969Z,98172.00
2023-04-04T14:45:58.151Z,98173.00
2023-04-04T14:48:27.812Z,98160.00
2023-04-04T14:50:56.063Z,98161.00
2023-04-04T14:53:25.953Z,98167.00
2023-04-04T14:55:54.338Z,98168.00
2023-04-04T14:58:22.496Z,98176.00
2023-04-04T15:00:50.902Z,98162.00
2023-04-04T15:03:19.145Z,98157.00
2023-04-04T15:05:49.576Z,98160.00
2023-04-04T15:08:17.736Z,98166.00
2023-04-04T15:10:46.235Z,98144.00
2023-04-04T15:13:14.430Z,98159.00
2023-04-04T15:15:42.556Z,98154.00
2023-04-04T15:18:10.770Z,98155.00
2023-04-04T15:20:40.092Z,98155.00
2023-04-04T15:23:09.869Z,98151.00
2023-04-04T15:25:38.166Z,98149.00
2023-04-04T15:28:06.581Z,98153.00
2023-04-04T15:30:34.780Z,98150.00
2023-04-04T15:33:03.056Z,98158.00
2023-04-04T15:35:31.281Z,98148.00
2023-04-04T15:37:59.545Z,98147.00
2023-04-04T15:40:29.089Z,98150.00
2023-04-04T15:42:57.619Z,98154.00
2023-04-04T15:45:27.171Z,98149.00
2023-04-04T15:47:55.683Z,98155.00
2023-04-04T15:50:23.912Z,98146.00
2023-04-04T15:52:52.133Z,98154.00
2023-04-04T15:55:22.004Z,98147.00
2023-04-04T15:57:51.742Z,98140.00
2023-04-04T16:00:20.670Z,98139.00
2023-04-04T16:02:49.049Z,98146.00
2023-04-04T16:05:17.223Z,98143.00
2023-04-04T16:07:45.674Z,98142.00
2023-04-04T16:10:13.923Z,98139.00
2023-04-04T16:12:42.108Z,98129.00
2023-04-04T16:15:12.715Z,98142.00
2023-04-04T16:17:41.022Z,98138.00
2023-04-04T16:20:10.533Z,98133.00
2023-04-04T16:22:38.704Z,98132.00
2023-04-04T16:25:09.005Z,98133.00
2023-04-04T16:27:37.515Z,98130.00
2023-04-04T16:30:07.148Z,98129.00
2023-04-04T16:32:37.444Z,98128.00
2023-04-04T16:35:07.013Z,98130.00
2023-04-04T16:37:35.481Z,98129.00
2023-04-04T16:40:05.016Z,98127.00
2023-04-04T16:42:33.391Z,98124.00
2023-04-04T16:45:02.373Z,98117.00
2023-04-04T16:47:30.753Z,98128.00
2023-04-04T16:50:00.522Z,98118.00
2023-04-04T16:52:29.025Z,98116.00
2023-04-04T16:54:57.366Z,98119.00
2023-04-04T16:57:25.846Z,98117.00
2023-04-04T16:59:54.222Z,98121.00
2023-04-04T17:02:22.638Z,98114.00
2023-04-04T17:04:51.364Z,98110.00
2023-04-04T17:07:21.562Z,98122.00
2023-04-04T17:09:51.455Z,98099.00
2023-04-04T17:12:20.318Z,98108.00
2023-04-04T17:14:48.689Z,98105.00
2023-04-04T17:17:17.397Z,98108.00
2023-04-04T17:19:45.689Z,98105.00
2023-04-04T17:22:14.198Z,98099.00
2023-04-04T17:24:44.156Z,98103.00
2023-04-04T17:27:12.394Z,98107.00
2023-04-04T17:29:41.283Z,98101.00
2023-04-04T17:32:09.657Z,98098.00
2023-04-04T17:34:37.880Z,98095.00
2023-04-04T17:37:08.996Z,98094.00
2023-04-04T17:39:37.298Z,98106.00
2023-04-04T17:42:07.101Z,98090.00
2023-04-04T17:44:35.382Z,98096.00
2023-04-04T17:47:03.684Z,98104.00
2023-04-04T17:49:31.905Z,98096.00
2023-04-04T17:52:00.154Z,98089.00
2023-04-04T17:54:29.663Z,98094.00
2023-04-04T17:56:59.229Z,98103.00
2023-04-04T17:59:28.865Z,98094.00
2023-04-04T18:01:57.338Z,98100.00
2023-04-04T18:04:25.629Z,98097.00
2023-04-04T18:06:54.439Z,98091.00
2023-04-04T18:09:24.210Z,98092.00
2023-04-04T18:11:52.579Z,98087.00
2023-04-04T18:14:20.863Z,98087.00
2023-04-04T18:16:50.777Z,98099.00
2023-04-04T18:19:19.058Z,98102.00
2023-04-04T18:21:49.543Z,98102.00
2023-04-04T18:24:17.739Z,98093.00
2023-04-04T18:26:48.375Z,98099.00
2023-04-04T18:29:18.035Z,98098.00
2023-04-04T18:31:50.851Z,98103.00
2023-04-04T18:34:21.530Z,98097.00
2023-04-04T18:36:50.166Z,98096.00
2023-04-04T18:39:18.722Z,98109.00
2023-04-04T18:41:47.708Z,98102.00
2023-04-04T18:44:16.283Z,98119.00
2023-04-04T18:46:44.700Z,98113.00
2023-04-04T18:49:16.341Z,98108.00
2023-04-04T18:51:44.670Z,98100.00
2023-04-04T18:54:12.927Z,98111.00
2023-04-04T18:56:41.142Z,98108.00
2023-04-04T18:59:09.361Z,98113.00
2023-04-04T19:01:40.256Z,98118.00
2023-04-04T19:04:09.571Z,98110.00
2023-04-04T19:06:41.863Z,98111.00
2023-04-04T19:09:12.102Z,98119.00
2023-04-04T19:11:40.463Z,98122.00
2023-04-04T19:14:09.383Z,98117.00
2023-04-04T19:16:37.945Z,98117.00
2023-04-04T19:19:06.322Z,98123.00
2023-04-04T19:21:34.620Z,98117.00
2023-04-04T19:24:04.448Z,98113.00
2023-04-04T19:26:32.640Z,98122.00
2023-04-04T19:29:00.851Z,98118.00
2023-04-04T19:31:34.335Z,98128.00
2023-04-04T19:34:03.545Z,98121.00
2023-04-04T19:36:37.532Z,98123.00
2023-04-04T19:39:10.832Z,98121.00
2023-04-04T19:41:42.613Z,98113.00
2023-04-04T19:44:20.814Z,98123.00
2023-04-04T19:46:49.533Z,98122.00
2023-04-04T19:49:19.195Z,98130.00
2023-04-04T19:51:53.678Z,98134.00
2023-04-04T19:54:28.100Z,98128.00
2023-04-04T19:57:01.564Z,98119.00
2023-04-04T20:00:01.656Z,98126.00
2023-04-04T20:03:07.620Z,98122.00
2023-04-04T20:05:57.314Z,98120.00
2023-04-04T20:08:37.035Z,98115.00
2023-04-04T20:11:07.911Z,98119.00
2023-04-04T20:13:38.103Z,98124.00
2023-04-04T20:16:09.705Z,98132.00
2023-04-04T20:18:39.676Z,98135.00
2023-04-04T20:21:12.293Z,98126.00
2023-04-04T20:23:52.437Z,98122.00
2023-04-04T20:26:52.211Z,98121.00
2023-04-04T20:29:23.189Z,98137.00
2023-04-04T20:31:54.741Z,98131.00
2023-04-04T20:34:41.625Z,98134.00
2023-04-04T20:37:16.159Z,98131.00
2023-04-04T20:39:50.876Z,98133.00
2023-04-04T20:42:34.833Z,98132.00
2023-04-04T20:45:29.694Z,98121.00
2023-04-04T20:48:00.457Z,98137.00
2023-04-04T20:50:47.158Z,98147.00
2023-04-04T20:53:20.098Z,98139.00
2023-04-04T20:55:50.309Z,98142.00
2023-04-04T20:58:29.963Z,98133.00
2023-04-04T21:01:00.891Z,98141.00
2023-04-04T21:03:36.613Z,98133.00
2023-04-04T21:06:13.882Z,98142.00
2023-04-04T21:08:48.254Z,98137.00
2023-04-04T21:11:27.212Z,98133.00
2023-04-04T21:13:57.458Z,98141.00
2023-04-04T21:16:29.446Z,98141.00
2023-04-04T21:19:01.538Z,98141.00
2023-04-04T21:21:30.561Z,98154.00
2023-04-04T21:24:00.790Z,98146.00
2023-04-04T21:26:41.415Z,98154.00
2023-04-04T21:29:23.068Z,98153.00
2023-04-04T21:31:53.404Z,98137.00
2023-04-04T21:34:24.216Z,98146.00
2023-04-04T21:36:55.887Z,98151.00
2023-04-04T21:39:25.856Z,98150.00
2023-04-04T21:41:57.889Z,98145.00
2023-04-04T21:44:28.119Z,98151.00
2023-04-04T21:46:56.533Z,98150.00
2023-04-04T21:49:26.094Z,98136.00
2023-04-04T21:51:54.431Z,98139.00
2023-04-04T21:54:22.635Z,98144.00
2023-04-04T21:56:50.800Z,98132.00
2023-04-04T21:59:19.003Z,98142.00
2023-04-04T22:01:48.597Z,98140.00
2023-04-04T22:04:16.945Z,98141.00
2023-04-04T22:06:45.333Z,98135.00
2023-04-04T22:09:16.063Z,98128.00
2023-04-04T22:11:45.304Z,98129.00
2023-04-04T22:14:17.258Z,98138.00
2023-04-04T22:16:45.867Z,98139.00
2023-04-04T22:19:15.465Z,98129.00
2023-04-04T22:21:47.583Z,98138.00
2023-04-04T22:24:17.578Z,98143.00
2023-04-04T22:26:46.012Z,98146.00
2023-04-04T22:29:14.452Z,98144.00
2023-04-04T22:31:43.424Z,98128.00
2023-04-04T22:34:14.767Z,98135.00
2023-04-04T22:36:44.910Z,98133.00
2023-04-04T22:39:16.196Z,98124.00
2023-04-04T22:41:45.442Z,98121.00
2023-04-04T22:44:13.735Z,98121.00
2023-04-04T22:46:42.017Z,98116.00
2023-04-04T22:49:10.343Z,98119.00
2023-04-04T22:51:45.705Z,98119.00
2023-04-04T22:54:17.241Z,98132.00
2023-04-04T22:56:45.841Z,98134.00
2023-04-04T22:59:14.340Z,98130.00
2023-04-04T23:01:42.787Z,98115.00
2023-04-04T23:04:11.106Z,98109.00
2023-04-04T23:06:39.450Z,98115.00
2023-04-04T23:09:08.576Z,98113.00
2023-04-04T23:11:39.032Z,98115.00
2023-04-04T23:14:09.594Z,98119.00
2023-04-04T23:16:38.291Z,98102.00
2023-04-04T23:19:06.567Z,98114.00
2023-04-04T23:21:34.834Z,98109.00
2023-04-04T23:24:03.320Z,98110.00
2023-04-04T23:26:32.446Z,98101.00
2023-04-04T23:29:02.897Z,98104.00
2023-04-04T23:31:31.428Z,98102.00
2023-04-04T23:34:00.110Z,98100.00
2023-04-04T23:36:28.387Z,98089.00
2023-04-04T23:38:56.662Z,98094.00
2023-04-04T23:41:24.826Z,98097.00
2023-04-04T23:43:53.352Z,98102.00
2023-04-04T23:46:23.866Z,98092.00
2023-04-04T23:48:52.134Z,98085.00
2023-04-04T23:51:21.356Z,98096.00
2023-04-04T23:53:49.580Z,98080.00
2023-04-04T23:56:17.866Z,98075.00
2023-04-04T23:58:46.161Z,98078.00
